Weather at Covered Bridge Fields Airport

Public forecast

Using degrees Fahrenheit for public forecast. Weather courtesy of forecast.io.

Closest aviation weather report (METAR) to Covered Bridge Fields Airport

Closest report is West Bend Municipal Airport, 8.0 nm (14.8 km) NW. Retrieved 2021/06/13 10:35 UTC (20 minutes ago):

KETB 131035Z AUTO 00000KT 10SM CLR 13/13 A2999 RMK AO2

Closest aviation forecast (TAF) to Covered Bridge Fields Airport

Closest forecast is Waukesha County Airport, 20.2 nm (37.5 km) SSW. Retrieved 2021/06/13 06:22 UTC (5 hours ago):

TAF KUES 130520Z 1306/1406 VRB03KT P6SM SKC FM131400 33006KT P6SM SKC FM132300 30006KT P6SM FEW250 FM140100 23004KT P6SM FEW250